aviador You're here:

LDDU Decoded Metar

DUBROVNIK in CROATIA
Report Time2017-09-26 07:00:00
UTC Time2017-09-26 07:10:40
Flight Rules vfr VFR
Wind030° at 07 kt
W.Decomp.*RWY 30: 0.4 kt HW 7.0 kt RCW
W.Rank030° ranks 4
Current wind is below 030° avg. (15.9)
Visibility9999 m
Phenomena:N/A
Clouds:N/A
Expected CloudBase > 4,400 ft AGL from Temp-Dew spread
CeilingNone
Temp20°C (ISA +6)
Dew Point09°C (49% RH)
AAT17.3°C
QNH1018 hPa
Density Alt1,240 ft
Elevation541 ft
Report Wrong Elevation
Raw Report
METAR LDDU 260700Z 03007KT 340V060 CAVOK 20/09 Q1018 NOSIG=

Extra information for LDDU:More info

Metar Taf Metar & Taf Last 4 Metars F.Rules Stats Wind Profile Meteogram Temp Stats Airport Information Weather charts Add Link Nearby VenuesMetar ALERT Operation Metar Decoded Social comments